sensor_id;sensor_type;location;lat;lon;timestamp;P1;durP1;ratioP1;P2;durP2;ratioP2
11709;SDS011;5911;51.036;6.972;2023-03-01T00:01:49;9.00;;;8.10;;
11709;SDS011;5911;51.036;6.972;2023-03-01T00:04:26;11.43;;;8.37;;
11709;SDS011;5911;51.036;6.972;2023-03-01T00:06:54;10.57;;;7.87;;
11709;SDS011;5911;51.036;6.972;2023-03-01T00:09:22;10.80;;;8.30;;
11709;SDS011;5911;51.036;6.972;2023-03-01T00:11:50;12.13;;;8.03;;
11709;SDS011;5911;51.036;6.972;2023-03-01T00:14:17;12.10;;;8.10;;
11709;SDS011;5911;51.036;6.972;2023-03-01T00:16:45;8.67;;;7.70;;
11709;SDS011;5911;51.036;6.972;2023-03-01T00:19:15;10.27;;;7.53;;
11709;SDS011;5911;51.036;6.972;2023-03-01T00:21:45;9.03;;;7.47;;
11709;SDS011;5911;51.036;6.972;2023-03-01T00:24:13;7.93;;;6.63;;
11709;SDS011;5911;51.036;6.972;2023-03-01T00:26:41;7.30;;;6.53;;
11709;SDS011;5911;51.036;6.972;2023-03-01T00:29:09;8.50;;;6.87;;
11709;SDS011;5911;51.036;6.972;2023-03-01T00:31:37;8.50;;;7.10;;
11709;SDS011;5911;51.036;6.972;2023-03-01T00:34:05;6.97;;;6.27;;
11709;SDS011;5911;51.036;6.972;2023-03-01T00:36:35;9.00;;;6.60;;
11709;SDS011;5911;51.036;6.972;2023-03-01T00:39:05;8.80;;;6.43;;
11709;SDS011;5911;51.036;6.972;2023-03-01T00:41:37;8.23;;;6.60;;
11709;SDS011;5911;51.036;6.972;2023-03-01T00:44:07;6.73;;;6.03;;
11709;SDS011;5911;51.036;6.972;2023-03-01T00:46:35;9.33;;;7.23;;
11709;SDS011;5911;51.036;6.972;2023-03-01T00:49:03;9.20;;;6.83;;
11709;SDS011;5911;51.036;6.972;2023-03-01T00:51:31;9.73;;;7.00;;
11709;SDS011;5911;51.036;6.972;2023-03-01T00:54:02;8.47;;;6.60;;
11709;SDS011;5911;51.036;6.972;2023-03-01T00:56:30;7.13;;;6.43;;
11709;SDS011;5911;51.036;6.972;2023-03-01T00:58:59;7.47;;;6.67;;
11709;SDS011;5911;51.036;6.972;2023-03-01T01:01:27;10.10;;;6.87;;
11709;SDS011;5911;51.036;6.972;2023-03-01T01:03:58;8.77;;;7.00;;
11709;SDS011;5911;51.036;6.972;2023-03-01T01:06:28;9.10;;;6.73;;
11709;SDS011;5911;51.036;6.972;2023-03-01T01:08:59;7.63;;;6.73;;
11709;SDS011;5911;51.036;6.972;2023-03-01T01:11:28;8.87;;;6.63;;
11709;SDS011;5911;51.036;6.972;2023-03-01T01:13:57;6.80;;;6.10;;
11709;SDS011;5911;51.036;6.972;2023-03-01T01:16:28;7.43;;;5.70;;
11709;SDS011;5911;51.036;6.972;2023-03-01T01:18:57;8.20;;;6.60;;
11709;SDS011;5911;51.036;6.972;2023-03-01T01:21:26;9.00;;;6.50;;
11709;SDS011;5911;51.036;6.972;2023-03-01T01:23:55;8.37;;;6.70;;
11709;SDS011;5911;51.036;6.972;2023-03-01T01:26:26;8.00;;;6.60;;
11709;SDS011;5911;51.036;6.972;2023-03-01T01:28:56;7.57;;;6.77;;
11709;SDS011;5911;51.036;6.972;2023-03-01T01:31:24;7.30;;;6.40;;
11709;SDS011;5911;51.036;6.972;2023-03-01T01:33:55;8.00;;;6.73;;
11709;SDS011;5911;51.036;6.972;2023-03-01T01:36:23;7.50;;;6.23;;
11709;SDS011;5911;51.036;6.972;2023-03-01T01:38:52;8.00;;;6.50;;
11709;SDS011;5911;51.036;6.972;2023-03-01T01:41:20;7.83;;;6.77;;
11709;SDS011;5911;51.036;6.972;2023-03-01T01:44:09;7.90;;;6.73;;
11709;SDS011;5911;51.036;6.972;2023-03-01T01:46:39;7.23;;;6.43;;
11709;SDS011;5911;51.036;6.972;2023-03-01T01:49:11;8.40;;;6.37;;
11709;SDS011;5911;51.036;6.972;2023-03-01T01:51:51;9.23;;;6.20;;
11709;SDS011;5911;51.036;6.972;2023-03-01T01:54:25;8.43;;;6.20;;
11709;SDS011;5911;51.036;6.972;2023-03-01T01:56:58;8.93;;;6.67;;
11709;SDS011;5911;51.036;6.972;2023-03-01T01:59:31;7.67;;;6.70;;
11709;SDS011;5911;51.036;6.972;2023-03-01T02:02:02;7.47;;;6.40;;
11709;SDS011;5911;51.036;6.972;2023-03-01T02:04:35;8.60;;;6.67;;
11709;SDS011;5911;51.036;6.972;2023-03-01T02:07:03;7.90;;;6.60;;
11709;SDS011;5911;51.036;6.972;2023-03-01T02:09:36;7.40;;;6.60;;
11709;SDS011;5911;51.036;6.972;2023-03-01T02:12:04;8.00;;;6.40;;
11709;SDS011;5911;51.036;6.972;2023-03-01T02:14:34;8.30;;;6.90;;
11709;SDS011;5911;51.036;6.972;2023-03-01T02:17:02;8.00;;;6.50;;
11709;SDS011;5911;51.036;6.972;2023-03-01T02:19:33;9.53;;;7.30;;
11709;SDS011;5911;51.036;6.972;2023-03-01T02:22:11;8.10;;;6.87;;
11709;SDS011;5911;51.036;6.972;2023-03-01T02:24:49;6.23;;;5.67;;
11709;SDS011;5911;51.036;6.972;2023-03-01T02:27:31;9.17;;;6.77;;
11709;SDS011;5911;51.036;6.972;2023-03-01T02:30:06;7.97;;;6.67;;
11709;SDS011;5911;51.036;6.972;2023-03-01T02:32:39;7.73;;;6.60;;
11709;SDS011;5911;51.036;6.972;2023-03-01T02:35:08;10.13;;;6.87;;
11709;SDS011;5911;51.036;6.972;2023-03-01T02:37:37;8.33;;;6.73;;
11709;SDS011;5911;51.036;6.972;2023-03-01T02:40:08;9.33;;;7.30;;
11709;SDS011;5911;51.036;6.972;2023-03-01T02:42:41;8.80;;;6.70;;
11709;SDS011;5911;51.036;6.972;2023-03-01T02:45:16;8.03;;;6.87;;
11709;SDS011;5911;51.036;6.972;2023-03-01T02:47:44;8.53;;;7.00;;
11709;SDS011;5911;51.036;6.972;2023-03-01T02:50:14;9.13;;;7.50;;
11709;SDS011;5911;51.036;6.972;2023-03-01T02:52:52;9.87;;;7.70;;
11709;SDS011;5911;51.036;6.972;2023-03-01T02:55:26;10.23;;;7.00;;
11709;SDS011;5911;51.036;6.972;2023-03-01T02:57:56;11.33;;;7.13;;
11709;SDS011;5911;51.036;6.972;2023-03-01T03:00:26;9.43;;;6.87;;
11709;SDS011;5911;51.036;6.972;2023-03-01T03:02:59;9.17;;;6.37;;
11709;SDS011;5911;51.036;6.972;2023-03-01T03:05:28;8.73;;;7.20;;
11709;SDS011;5911;51.036;6.972;2023-03-01T03:07:57;9.10;;;7.23;;
11709;SDS011;5911;51.036;6.972;2023-03-01T03:10:31;8.77;;;6.53;;
11709;SDS011;5911;51.036;6.972;2023-03-01T03:13:03;10.43;;;7.27;;
11709;SDS011;5911;51.036;6.972;2023-03-01T03:15:33;7.30;;;6.40;;
11709;SDS011;5911;51.036;6.972;2023-03-01T03:18:03;10.90;;;7.73;;
11709;SDS011;5911;51.036;6.972;2023-03-01T03:20:33;10.63;;;7.27;;
11709;SDS011;5911;51.036;6.972;2023-03-01T03:23:01;8.40;;;7.50;;
11709;SDS011;5911;51.036;6.972;2023-03-01T03:25:29;8.30;;;7.03;;
11709;SDS011;5911;51.036;6.972;2023-03-01T03:27:58;8.83;;;7.00;;
11709;SDS011;5911;51.036;6.972;2023-03-01T03:30:27;9.57;;;7.03;;
11709;SDS011;5911;51.036;6.972;2023-03-01T03:32:58;7.93;;;7.00;;
11709;SDS011;5911;51.036;6.972;2023-03-01T03:35:27;11.47;;;7.33;;
11709;SDS011;5911;51.036;6.972;2023-03-01T03:37:57;10.70;;;7.77;;
11709;SDS011;5911;51.036;6.972;2023-03-01T03:40:29;9.80;;;8.07;;
11709;SDS011;5911;51.036;6.972;2023-03-01T03:42:58;8.83;;;7.60;;
11709;SDS011;5911;51.036;6.972;2023-03-01T03:45:26;9.80;;;8.10;;
11709;SDS011;5911;51.036;6.972;2023-03-01T03:47:57;10.33;;;8.77;;
11709;SDS011;5911;51.036;6.972;2023-03-01T03:50:31;11.67;;;7.93;;
11709;SDS011;5911;51.036;6.972;2023-03-01T03:52:59;10.13;;;8.03;;
11709;SDS011;5911;51.036;6.972;2023-03-01T03:55:27;10.67;;;8.33;;
11709;SDS011;5911;51.036;6.972;2023-03-01T03:57:57;9.73;;;8.47;;
11709;SDS011;5911;51.036;6.972;2023-03-01T04:00:28;10.20;;;8.53;;
11709;SDS011;5911;51.036;6.972;2023-03-01T04:02:56;8.87;;;7.97;;
11709;SDS011;5911;51.036;6.972;2023-03-01T04:05:26;9.97;;;7.77;;
11709;SDS011;5911;51.036;6.972;2023-03-01T04:07:54;9.67;;;7.97;;
11709;SDS011;5911;51.036;6.972;2023-03-01T04:10:34;8.70;;;7.80;;
11709;SDS011;5911;51.036;6.972;2023-03-01T04:13:03;12.37;;;8.60;;
11709;SDS011;5911;51.036;6.972;2023-03-01T04:15:32;9.97;;;8.20;;
11709;SDS011;5911;51.036;6.972;2023-03-01T04:18:00;9.23;;;8.20;;
11709;SDS011;5911;51.036;6.972;2023-03-01T04:20:31;10.13;;;8.07;;
11709;SDS011;5911;51.036;6.972;2023-03-01T04:23:01;10.23;;;7.83;;
11709;SDS011;5911;51.036;6.972;2023-03-01T04:25:39;9.97;;;8.23;;
11709;SDS011;5911;51.036;6.972;2023-03-01T04:28:08;10.30;;;8.07;;
11709;SDS011;5911;51.036;6.972;2023-03-01T04:30:37;8.93;;;7.77;;
11709;SDS011;5911;51.036;6.972;2023-03-01T04:33:06;9.73;;;7.93;;
11709;SDS011;5911;51.036;6.972;2023-03-01T04:35:36;10.97;;;8.43;;
11709;SDS011;5911;51.036;6.972;2023-03-01T04:38:05;11.90;;;9.03;;
11709;SDS011;5911;51.036;6.972;2023-03-01T04:40:33;10.37;;;8.47;;
11709;SDS011;5911;51.036;6.972;2023-03-01T04:43:02;10.83;;;8.57;;
11709;SDS011;5911;51.036;6.972;2023-03-01T04:45:31;10.77;;;8.50;;
11709;SDS011;5911;51.036;6.972;2023-03-01T04:48:01;9.23;;;7.87;;
11709;SDS011;5911;51.036;6.972;2023-03-01T04:50:33;9.13;;;7.93;;
11709;SDS011;5911;51.036;6.972;2023-03-01T04:53:02;9.30;;;8.17;;
11709;SDS011;5911;51.036;6.972;2023-03-01T04:55:30;10.37;;;8.00;;
11709;SDS011;5911;51.036;6.972;2023-03-01T04:57:58;12.20;;;7.93;;
11709;SDS011;5911;51.036;6.972;2023-03-01T05:00:26;22.17;;;9.67;;
11709;SDS011;5911;51.036;6.972;2023-03-01T05:02:55;15.10;;;8.63;;
11709;SDS011;5911;51.036;6.972;2023-03-01T05:05:25;13.57;;;8.37;;
11709;SDS011;5911;51.036;6.972;2023-03-01T05:07:54;15.67;;;8.50;;
11709;SDS011;5911;51.036;6.972;2023-03-01T05:10:25;13.47;;;8.70;;
11709;SDS011;5911;51.036;6.972;2023-03-01T05:12:56;12.63;;;8.80;;
11709;SDS011;5911;51.036;6.972;2023-03-01T05:15:31;11.77;;;9.30;;
11709;SDS011;5911;51.036;6.972;2023-03-01T05:18:01;11.77;;;8.87;;
11709;SDS011;5911;51.036;6.972;2023-03-01T05:20:37;11.67;;;8.97;;
11709;SDS011;5911;51.036;6.972;2023-03-01T05:23:05;11.10;;;8.73;;
11709;SDS011;5911;51.036;6.972;2023-03-01T05:25:35;11.23;;;8.90;;
11709;SDS011;5911;51.036;6.972;2023-03-01T05:28:07;12.80;;;8.93;;
11709;SDS011;5911;51.036;6.972;2023-03-01T05:30:39;10.20;;;8.33;;
11709;SDS011;5911;51.036;6.972;2023-03-01T05:33:08;14.73;;;9.30;;
11709;SDS011;5911;51.036;6.972;2023-03-01T05:35:40;13.57;;;9.43;;
11709;SDS011;5911;51.036;6.972;2023-03-01T05:38:09;10.57;;;8.80;;
11709;SDS011;5911;51.036;6.972;2023-03-01T05:40:40;9.53;;;8.33;;
11709;SDS011;5911;51.036;6.972;2023-03-01T05:43:10;10.33;;;9.00;;
11709;SDS011;5911;51.036;6.972;2023-03-01T05:45:39;11.73;;;8.77;;
11709;SDS011;5911;51.036;6.972;2023-03-01T05:48:08;11.00;;;8.63;;
11709;SDS011;5911;51.036;6.972;2023-03-01T05:50:37;14.43;;;9.40;;
11709;SDS011;5911;51.036;6.972;2023-03-01T05:53:07;13.37;;;9.60;;
11709;SDS011;5911;51.036;6.972;2023-03-01T05:55:36;15.90;;;9.33;;
11709;SDS011;5911;51.036;6.972;2023-03-01T05:58:07;13.73;;;8.80;;
11709;SDS011;5911;51.036;6.972;2023-03-01T06:00:37;13.00;;;9.27;;
11709;SDS011;5911;51.036;6.972;2023-03-01T06:03:05;14.60;;;9.17;;
11709;SDS011;5911;51.036;6.972;2023-03-01T06:05:33;10.03;;;8.97;;
11709;SDS011;5911;51.036;6.972;2023-03-01T06:08:01;12.90;;;9.30;;
11709;SDS011;5911;51.036;6.972;2023-03-01T06:10:30;15.57;;;9.87;;
11709;SDS011;5911;51.036;6.972;2023-03-01T06:12:58;10.27;;;9.17;;
11709;SDS011;5911;51.036;6.972;2023-03-01T06:15:28;12.37;;;9.23;;
11709;SDS011;5911;51.036;6.972;2023-03-01T06:17:56;10.63;;;9.23;;
11709;SDS011;5911;51.036;6.972;2023-03-01T06:20:26;10.73;;;9.03;;
11709;SDS011;5911;51.036;6.972;2023-03-01T06:22:55;10.17;;;8.83;;
11709;SDS011;5911;51.036;6.972;2023-03-01T06:25:24;11.03;;;9.83;;
11709;SDS011;5911;51.036;6.972;2023-03-01T06:27:53;12.20;;;8.97;;
11709;SDS011;5911;51.036;6.972;2023-03-01T06:30:22;11.23;;;9.13;;
11709;SDS011;5911;51.036;6.972;2023-03-01T06:32:52;12.27;;;9.93;;
11709;SDS011;5911;51.036;6.972;2023-03-01T06:35:27;12.73;;;9.20;;
11709;SDS011;5911;51.036;6.972;2023-03-01T06:37:56;12.83;;;9.53;;
11709;SDS011;5911;51.036;6.972;2023-03-01T06:40:25;12.50;;;10.00;;
11709;SDS011;5911;51.036;6.972;2023-03-01T06:42:53;12.47;;;10.53;;
11709;SDS011;5911;51.036;6.972;2023-03-01T06:45:21;13.47;;;9.43;;
11709;SDS011;5911;51.036;6.972;2023-03-01T06:47:49;11.27;;;10.07;;
11709;SDS011;5911;51.036;6.972;2023-03-01T06:50:18;16.37;;;10.97;;
11709;SDS011;5911;51.036;6.972;2023-03-01T06:52:46;18.93;;;10.23;;
11709;SDS011;5911;51.036;6.972;2023-03-01T06:55:14;17.33;;;11.77;;
11709;SDS011;5911;51.036;6.972;2023-03-01T06:57:42;15.97;;;10.70;;
11709;SDS011;5911;51.036;6.972;2023-03-01T07:00:10;16.37;;;10.97;;
11709;SDS011;5911;51.036;6.972;2023-03-01T07:02:39;14.20;;;11.27;;
11709;SDS011;5911;51.036;6.972;2023-03-01T07:05:07;21.53;;;12.73;;
11709;SDS011;5911;51.036;6.972;2023-03-01T07:07:36;21.67;;;10.87;;
11709;SDS011;5911;51.036;6.972;2023-03-01T07:10:05;16.93;;;11.40;;
11709;SDS011;5911;51.036;6.972;2023-03-01T07:12:33;15.67;;;10.90;;
11709;SDS011;5911;51.036;6.972;2023-03-01T07:15:04;18.13;;;11.97;;
11709;SDS011;5911;51.036;6.972;2023-03-01T07:17:32;16.80;;;10.70;;
11709;SDS011;5911;51.036;6.972;2023-03-01T07:20:00;22.17;;;11.70;;
11709;SDS011;5911;51.036;6.972;2023-03-01T07:22:28;15.60;;;11.50;;
11709;SDS011;5911;51.036;6.972;2023-03-01T07:24:57;14.57;;;11.17;;
11709;SDS011;5911;51.036;6.972;2023-03-01T07:27:25;17.83;;;11.47;;
11709;SDS011;5911;51.036;6.972;2023-03-01T07:29:53;19.53;;;11.73;;
11709;SDS011;5911;51.036;6.972;2023-03-01T07:32:21;16.07;;;11.97;;
11709;SDS011;5911;51.036;6.972;2023-03-01T07:34:50;16.13;;;12.00;;
11709;SDS011;5911;51.036;6.972;2023-03-01T07:37:18;13.93;;;11.53;;
11709;SDS011;5911;51.036;6.972;2023-03-01T07:39:46;18.83;;;11.63;;
11709;SDS011;5911;51.036;6.972;2023-03-01T07:42:15;17.53;;;12.27;;
11709;SDS011;5911;51.036;6.972;2023-03-01T07:44:45;13.97;;;11.67;;
11709;SDS011;5911;51.036;6.972;2023-03-01T07:47:21;17.57;;;12.03;;
11709;SDS011;5911;51.036;6.972;2023-03-01T07:49:49;15.87;;;11.27;;
11709;SDS011;5911;51.036;6.972;2023-03-01T07:52:17;17.37;;;11.53;;
11709;SDS011;5911;51.036;6.972;2023-03-01T07:54:45;17.87;;;12.40;;
11709;SDS011;5911;51.036;6.972;2023-03-01T07:57:13;17.40;;;12.97;;
11709;SDS011;5911;51.036;6.972;2023-03-01T07:59:42;22.73;;;13.10;;
11709;SDS011;5911;51.036;6.972;2023-03-01T08:02:10;22.47;;;13.53;;
11709;SDS011;5911;51.036;6.972;2023-03-01T08:04:38;21.13;;;12.53;;
11709;SDS011;5911;51.036;6.972;2023-03-01T08:07:06;15.30;;;12.00;;
11709;SDS011;5911;51.036;6.972;2023-03-01T08:09:34;18.90;;;13.23;;
11709;SDS011;5911;51.036;6.972;2023-03-01T08:12:02;18.07;;;12.80;;
11709;SDS011;5911;51.036;6.972;2023-03-01T08:14:30;20.27;;;12.63;;
11709;SDS011;5911;51.036;6.972;2023-03-01T08:17:00;17.53;;;12.40;;
11709;SDS011;5911;51.036;6.972;2023-03-01T08:19:29;18.00;;;12.70;;
11709;SDS011;5911;51.036;6.972;2023-03-01T08:21:57;14.40;;;12.57;;
11709;SDS011;5911;51.036;6.972;2023-03-01T08:24:26;14.40;;;10.83;;
11709;SDS011;5911;51.036;6.972;2023-03-01T08:26:54;18.40;;;11.77;;
11709;SDS011;5911;51.036;6.972;2023-03-01T08:29:22;14.30;;;10.50;;
11709;SDS011;5911;51.036;6.972;2023-03-01T08:31:50;14.07;;;10.83;;
11709;SDS011;5911;51.036;6.972;2023-03-01T08:34:20;13.87;;;10.70;;
11709;SDS011;5911;51.036;6.972;2023-03-01T08:36:48;15.33;;;10.90;;
11709;SDS011;5911;51.036;6.972;2023-03-01T08:39:17;14.27;;;10.93;;
11709;SDS011;5911;51.036;6.972;2023-03-01T08:41:46;13.77;;;10.77;;
11709;SDS011;5911;51.036;6.972;2023-03-01T08:44:14;13.63;;;10.30;;
11709;SDS011;5911;51.036;6.972;2023-03-01T08:46:44;14.50;;;10.60;;
11709;SDS011;5911;51.036;6.972;2023-03-01T08:49:13;14.07;;;10.03;;
11709;SDS011;5911;51.036;6.972;2023-03-01T08:51:44;14.37;;;10.83;;
11709;SDS011;5911;51.036;6.972;2023-03-01T08:54:14;13.37;;;9.67;;
11709;SDS011;5911;51.036;6.972;2023-03-01T08:56:44;11.83;;;9.87;;
11709;SDS011;5911;51.036;6.972;2023-03-01T08:59:12;13.23;;;9.83;;
11709;SDS011;5911;51.036;6.972;2023-03-01T09:01:42;11.83;;;9.60;;
11709;SDS011;5911;51.036;6.972;2023-03-01T09:04:10;12.93;;;10.37;;
11709;SDS011;5911;51.036;6.972;2023-03-01T09:06:39;12.30;;;10.10;;
11709;SDS011;5911;51.036;6.972;2023-03-01T09:09:11;11.50;;;9.63;;
11709;SDS011;5911;51.036;6.972;2023-03-01T09:11:42;13.30;;;9.63;;
11709;SDS011;5911;51.036;6.972;2023-03-01T09:14:12;11.93;;;9.10;;
11709;SDS011;5911;51.036;6.972;2023-03-01T09:16:40;12.20;;;9.00;;
11709;SDS011;5911;51.036;6.972;2023-03-01T09:19:08;10.03;;;8.17;;
11709;SDS011;5911;51.036;6.972;2023-03-01T09:21:37;11.23;;;8.80;;
11709;SDS011;5911;51.036;6.972;2023-03-01T09:24:07;11.77;;;8.63;;
11709;SDS011;5911;51.036;6.972;2023-03-01T09:26:41;11.90;;;8.63;;
11709;SDS011;5911;51.036;6.972;2023-03-01T09:29:13;12.23;;;9.13;;
11709;SDS011;5911;51.036;6.972;2023-03-01T09:31:42;9.80;;;8.50;;
11709;SDS011;5911;51.036;6.972;2023-03-01T09:34:10;12.63;;;9.23;;
11709;SDS011;5911;51.036;6.972;2023-03-01T09:36:39;11.90;;;9.20;;
11709;SDS011;5911;51.036;6.972;2023-03-01T09:39:07;10.87;;;8.93;;
11709;SDS011;5911;51.036;6.972;2023-03-01T09:41:48;12.00;;;8.97;;
11709;SDS011;5911;51.036;6.972;2023-03-01T09:44:27;11.23;;;9.77;;
11709;SDS011;5911;51.036;6.972;2023-03-01T09:47:01;12.07;;;8.13;;
11709;SDS011;5911;51.036;6.972;2023-03-01T09:49:30;12.40;;;9.03;;
11709;SDS011;5911;51.036;6.972;2023-03-01T09:52:02;10.07;;;8.30;;
11709;SDS011;5911;51.036;6.972;2023-03-01T09:54:36;13.37;;;9.50;;
11709;SDS011;5911;51.036;6.972;2023-03-01T09:57:09;13.10;;;9.27;;
11709;SDS011;5911;51.036;6.972;2023-03-01T09:59:48;12.40;;;8.90;;
11709;SDS011;5911;51.036;6.972;2023-03-01T10:02:38;11.77;;;8.97;;
11709;SDS011;5911;51.036;6.972;2023-03-01T10:05:14;12.10;;;9.23;;
11709;SDS011;5911;51.036;6.972;2023-03-01T10:07:54;10.80;;;8.53;;
11709;SDS011;5911;51.036;6.972;2023-03-01T10:10:34;11.27;;;8.57;;
11709;SDS011;5911;51.036;6.972;2023-03-01T10:13:08;13.43;;;8.67;;
11709;SDS011;5911;51.036;6.972;2023-03-01T10:15:43;10.73;;;8.67;;
11709;SDS011;5911;51.036;6.972;2023-03-01T10:18:16;13.10;;;9.40;;
11709;SDS011;5911;51.036;6.972;2023-03-01T10:20:46;10.90;;;8.73;;
11709;SDS011;5911;51.036;6.972;2023-03-01T10:23:19;11.63;;;9.00;;
11709;SDS011;5911;51.036;6.972;2023-03-01T10:25:51;12.97;;;9.50;;
11709;SDS011;5911;51.036;6.972;2023-03-01T10:28:35;11.80;;;9.10;;
11709;SDS011;5911;51.036;6.972;2023-03-01T10:31:12;11.60;;;8.30;;
11709;SDS011;5911;51.036;6.972;2023-03-01T10:33:42;11.07;;;8.67;;
11709;SDS011;5911;51.036;6.972;2023-03-01T10:36:10;15.63;;;8.93;;
11709;SDS011;5911;51.036;6.972;2023-03-01T10:38:48;10.57;;;8.63;;
11709;SDS011;5911;51.036;6.972;2023-03-01T10:41:18;11.50;;;9.13;;
11709;SDS011;5911;51.036;6.972;2023-03-01T10:43:48;11.10;;;9.20;;
11709;SDS011;5911;51.036;6.972;2023-03-01T10:46:22;10.37;;;8.67;;
11709;SDS011;5911;51.036;6.972;2023-03-01T10:49:08;10.27;;;8.17;;
11709;SDS011;5911;51.036;6.972;2023-03-01T10:51:42;9.00;;;7.80;;
11709;SDS011;5911;51.036;6.972;2023-03-01T10:54:16;10.23;;;8.30;;
11709;SDS011;5911;51.036;6.972;2023-03-01T10:56:45;10.60;;;8.30;;
11709;SDS011;5911;51.036;6.972;2023-03-01T10:59:21;10.33;;;8.10;;
11709;SDS011;5911;51.036;6.972;2023-03-01T11:02:15;10.70;;;8.57;;
11709;SDS011;5911;51.036;6.972;2023-03-01T11:04:58;12.93;;;9.07;;
11709;SDS011;5911;51.036;6.972;2023-03-01T11:07:27;9.97;;;8.90;;
11709;SDS011;5911;51.036;6.972;2023-03-01T11:09:55;9.33;;;8.30;;
11709;SDS011;5911;51.036;6.972;2023-03-01T11:12:23;10.73;;;8.87;;
11709;SDS011;5911;51.036;6.972;2023-03-01T11:14:53;10.20;;;9.07;;
11709;SDS011;5911;51.036;6.972;2023-03-01T11:17:23;10.90;;;7.80;;
11709;SDS011;5911;51.036;6.972;2023-03-01T11:20:00;10.00;;;8.23;;
11709;SDS011;5911;51.036;6.972;2023-03-01T11:22:32;9.83;;;8.00;;
11709;SDS011;5911;51.036;6.972;2023-03-01T11:25:04;12.37;;;8.53;;
11709;SDS011;5911;51.036;6.972;2023-03-01T11:27:40;10.33;;;8.70;;
11709;SDS011;5911;51.036;6.972;2023-03-01T11:30:15;12.60;;;8.27;;
11709;SDS011;5911;51.036;6.972;2023-03-01T11:32:47;9.03;;;8.00;;
11709;SDS011;5911;51.036;6.972;2023-03-01T11:35:24;12.87;;;9.80;;
11709;SDS011;5911;51.036;6.972;2023-03-01T11:37:56;12.80;;;9.17;;
11709;SDS011;5911;51.036;6.972;2023-03-01T11:40:37;9.53;;;8.57;;
11709;SDS011;5911;51.036;6.972;2023-03-01T11:43:11;12.10;;;8.43;;
11709;SDS011;5911;51.036;6.972;2023-03-01T11:48:59;9.37;;;8.33;;
11709;SDS011;5911;51.036;6.972;2023-03-01T11:51:42;11.97;;;8.20;;
11709;SDS011;5911;51.036;6.972;2023-03-01T11:54:24;10.50;;;7.97;;
11709;SDS011;5911;51.036;6.972;2023-03-01T11:57:01;10.10;;;8.07;;
11709;SDS011;5911;51.036;6.972;2023-03-01T11:59:49;10.60;;;8.30;;
11709;SDS011;5911;51.036;6.972;2023-03-01T12:05:35;8.47;;;7.53;;
11709;SDS011;5911;51.036;6.972;2023-03-01T12:08:16;14.30;;;8.20;;
11709;SDS011;5911;51.036;6.972;2023-03-01T12:10:55;10.73;;;8.73;;
11709;SDS011;5911;51.036;6.972;2023-03-01T12:16:38;12.47;;;8.40;;
11709;SDS011;5911;51.036;6.972;2023-03-01T12:19:32;9.80;;;8.07;;
11709;SDS011;5911;51.036;6.972;2023-03-01T12:22:11;9.23;;;7.90;;
11709;SDS011;5911;51.036;6.972;2023-03-01T12:24:52;10.93;;;8.13;;
11709;SDS011;5911;51.036;6.972;2023-03-01T12:27:50;10.23;;;8.40;;
11709;SDS011;5911;51.036;6.972;2023-03-01T12:30:32;9.63;;;8.07;;
11709;SDS011;5911;51.036;6.972;2023-03-01T12:33:14;9.32;;;8.18;;
11709;SDS011;5911;51.036;6.972;2023-03-01T12:35:54;8.90;;;8.00;;
11709;SDS011;5911;51.036;6.972;2023-03-01T12:38:57;13.90;;;7.60;;
11709;SDS011;5911;51.036;6.972;2023-03-01T12:41:37;10.88;;;8.18;;
11709;SDS011;5911;51.036;6.972;2023-03-01T12:44:15;9.02;;;7.57;;
11709;SDS011;5911;51.036;6.972;2023-03-01T12:47:00;16.45;;;7.82;;
11709;SDS011;5911;51.036;6.972;2023-03-01T12:49:39;8.20;;;6.70;;
11709;SDS011;5911;51.036;6.972;2023-03-01T12:52:14;10.30;;;7.85;;
11709;SDS011;5911;51.036;6.972;2023-03-01T12:54:48;12.30;;;7.87;;
11709;SDS011;5911;51.036;6.972;2023-03-01T12:57:20;10.80;;;7.73;;
11709;SDS011;5911;51.036;6.972;2023-03-01T13:00:06;14.02;;;8.05;;
11709;SDS011;5911;51.036;6.972;2023-03-01T13:02:52;13.50;;;8.00;;
11709;SDS011;5911;51.036;6.972;2023-03-01T13:05:29;10.33;;;8.30;;
11709;SDS011;5911;51.036;6.972;2023-03-01T13:08:10;10.05;;;8.23;;
11709;SDS011;5911;51.036;6.972;2023-03-01T13:10:46;11.38;;;8.57;;
11709;SDS011;5911;51.036;6.972;2023-03-01T13:13:21;15.17;;;8.53;;
11709;SDS011;5911;51.036;6.972;2023-03-01T13:15:50;8.13;;;6.90;;
11709;SDS011;5911;51.036;6.972;2023-03-01T13:18:29;8.60;;;6.70;;
11709;SDS011;5911;51.036;6.972;2023-03-01T13:20:58;8.40;;;7.50;;
11709;SDS011;5911;51.036;6.972;2023-03-01T13:23:31;9.03;;;6.83;;
11709;SDS011;5911;51.036;6.972;2023-03-01T13:26:02;7.68;;;6.80;;
11709;SDS011;5911;51.036;6.972;2023-03-01T13:28:38;15.43;;;7.40;;
11709;SDS011;5911;51.036;6.972;2023-03-01T13:31:08;9.65;;;7.30;;
11709;SDS011;5911;51.036;6.972;2023-03-01T13:39:31;8.13;;;6.50;;
11709;SDS011;5911;51.036;6.972;2023-03-01T13:44:57;10.00;;;6.93;;
11709;SDS011;5911;51.036;6.972;2023-03-01T13:47:26;10.93;;;7.00;;
11709;SDS011;5911;51.036;6.972;2023-03-01T13:49:56;12.20;;;6.93;;
11709;SDS011;5911;51.036;6.972;2023-03-01T13:52:30;8.87;;;6.53;;
11709;SDS011;5911;51.036;6.972;2023-03-01T13:55:04;13.63;;;7.80;;
11709;SDS011;5911;51.036;6.972;2023-03-01T13:57:44;9.13;;;6.57;;
11709;SDS011;5911;51.036;6.972;2023-03-01T14:00:27;9.95;;;6.82;;
11709;SDS011;5911;51.036;6.972;2023-03-01T14:03:05;9.23;;;6.97;;
11709;SDS011;5911;51.036;6.972;2023-03-01T14:05:38;8.55;;;7.03;;
11709;SDS011;5911;51.036;6.972;2023-03-01T14:08:17;10.45;;;6.80;;
11709;SDS011;5911;51.036;6.972;2023-03-01T14:10:57;14.68;;;7.55;;
11709;SDS011;5911;51.036;6.972;2023-03-01T14:14:01;12.43;;;7.57;;
11709;SDS011;5911;51.036;6.972;2023-03-01T14:16:43;13.90;;;6.95;;
11709;SDS011;5911;51.036;6.972;2023-03-01T14:19:21;7.60;;;5.80;;
11709;SDS011;5911;51.036;6.972;2023-03-01T14:22:02;9.77;;;6.53;;
11709;SDS011;5911;51.036;6.972;2023-03-01T14:24:40;11.88;;;6.57;;
11709;SDS011;5911;51.036;6.972;2023-03-01T14:27:15;11.85;;;7.25;;
11709;SDS011;5911;51.036;6.972;2023-03-01T14:29:45;22.42;;;7.75;;
11709;SDS011;5911;51.036;6.972;2023-03-01T14:32:23;15.68;;;7.75;;
11709;SDS011;5911;51.036;6.972;2023-03-01T14:34:53;9.82;;;7.55;;
11709;SDS011;5911;51.036;6.972;2023-03-01T14:37:23;20.42;;;8.27;;
11709;SDS011;5911;51.036;6.972;2023-03-01T14:39:52;12.27;;;6.80;;
11709;SDS011;5911;51.036;6.972;2023-03-01T14:42:23;20.00;;;8.32;;
11709;SDS011;5911;51.036;6.972;2023-03-01T14:44:55;8.40;;;6.40;;
11709;SDS011;5911;51.036;6.972;2023-03-01T14:47:26;10.70;;;7.63;;
11709;SDS011;5911;51.036;6.972;2023-03-01T14:49:57;14.10;;;7.40;;
11709;SDS011;5911;51.036;6.972;2023-03-01T14:52:29;9.23;;;7.28;;
11709;SDS011;5911;51.036;6.972;2023-03-01T14:55:02;7.22;;;6.50;;
11709;SDS011;5911;51.036;6.972;2023-03-01T14:57:34;8.10;;;7.18;;
11709;SDS011;5911;51.036;6.972;2023-03-01T15:00:03;10.48;;;7.57;;
11709;SDS011;5911;51.036;6.972;2023-03-01T15:02:34;7.20;;;6.40;;
11709;SDS011;5911;51.036;6.972;2023-03-01T15:05:03;10.60;;;7.05;;
11709;SDS011;5911;51.036;6.972;2023-03-01T15:07:35;10.23;;;6.17;;
11709;SDS011;5911;51.036;6.972;2023-03-01T15:10:12;8.83;;;6.40;;
11709;SDS011;5911;51.036;6.972;2023-03-01T15:12:46;7.60;;;6.63;;
11709;SDS011;5911;51.036;6.972;2023-03-01T15:15:22;6.28;;;5.68;;
11709;SDS011;5911;51.036;6.972;2023-03-01T15:17:59;8.23;;;6.05;;
11709;SDS011;5911;51.036;6.972;2023-03-01T15:20:29;7.18;;;6.47;;
11709;SDS011;5911;51.036;6.972;2023-03-01T15:23:02;9.25;;;6.45;;
11709;SDS011;5911;51.036;6.972;2023-03-01T15:25:31;9.98;;;7.60;;
11709;SDS011;5911;51.036;6.972;2023-03-01T15:28:02;10.85;;;6.88;;
11709;SDS011;5911;51.036;6.972;2023-03-01T15:30:30;7.73;;;6.47;;
11709;SDS011;5911;51.036;6.972;2023-03-01T15:33:17;8.50;;;6.53;;
11709;SDS011;5911;51.036;6.972;2023-03-01T15:35:57;7.27;;;6.40;;
11709;SDS011;5911;51.036;6.972;2023-03-01T15:38:27;7.83;;;6.53;;